Terminal Aerodrome Forecast
Issued by NWS Portland, OR

Home | Current Version | Previous Version | Text Only | Print | Product List | Glossary On
Versions: 1 2 3 4 5 6 7 8 9 10 11 12 13 14 15 16 17
000
FTUS46 KPQR 082121 AAB
TAFAST
TAF AMD
KAST 082121Z 0821/0918 08012KT 5SM -RA BR SCT020 OVC040
     FM090800 20013KT P6SM -SHRA BKN025 OVC045
     FM091200 20006KT P6SM OVC100=

USA.gov is the U.S. government's official web portal to all federal, state and local government web resources and services.